createdAt,value
2017-11-16T00:02:00.984Z,31.55
2017-11-16T00:04:28.516Z,33.47
2017-11-16T00:06:55.996Z,32.63
2017-11-16T00:09:23.474Z,32.35
2017-11-16T00:11:50.952Z,29.60
2017-11-16T00:14:18.435Z,32.22
2017-11-16T00:16:45.978Z,26.75
2017-11-16T00:19:13.436Z,27.90
2017-11-16T00:21:40.904Z,30.20
2017-11-16T00:24:08.375Z,29.95
2017-11-16T00:26:35.854Z,32.03
2017-11-16T00:29:03.349Z,33.65
2017-11-16T00:31:30.831Z,32.40
2017-11-16T00:33:58.305Z,31.15
2017-11-16T00:36:25.866Z,30.80
2017-11-16T00:38:53.339Z,32.20
2017-11-16T00:41:21.566Z,33.10
2017-11-16T00:43:49.167Z,33.05
2017-11-16T00:46:16.616Z,25.52
2017-11-16T00:48:44.086Z,28.77
2017-11-16T00:51:12.350Z,31.73
2017-11-16T00:53:39.817Z,34.45
2017-11-16T00:56:07.271Z,30.95
2017-11-16T00:58:34.756Z,32.85
2017-11-16T01:01:02.228Z,28.33
2017-11-16T01:03:29.736Z,28.42
2017-11-16T01:05:57.299Z,33.60
2017-11-16T01:08:24.771Z,32.25
2017-11-16T01:10:52.247Z,29.27
2017-11-16T01:13:20.483Z,32.60
2017-11-16T01:15:47.953Z,32.58
2017-11-16T01:18:15.418Z,27.55
2017-11-16T01:20:43.743Z,28.45
2017-11-16T01:23:11.214Z,26.37
2017-11-16T01:25:38.696Z,23.38
2017-11-16T01:28:06.188Z,23.30
2017-11-16T01:30:33.669Z,22.15
2017-11-16T01:33:01.132Z,28.25
2017-11-16T01:35:28.586Z,26.50
2017-11-16T01:37:56.168Z,28.75
2017-11-16T01:40:23.667Z,31.87
2017-11-16T01:42:51.914Z,31.20
2017-11-16T01:45:19.411Z,31.83
2017-11-16T01:47:46.890Z,27.98
2017-11-16T01:50:14.355Z,28.60
2017-11-16T01:52:41.840Z,33.10
2017-11-16T01:55:09.323Z,32.97
2017-11-16T01:57:36.798Z,32.83
2017-11-16T02:00:04.283Z,31.20
2017-11-16T02:02:40.574Z,27.13
2017-11-16T02:05:08.052Z,32.53
2017-11-16T02:07:35.522Z,32.60
2017-11-16T02:10:03.064Z,32.30
2017-11-16T02:12:30.534Z,31.55
2017-11-16T02:14:58.039Z,32.22
2017-11-16T02:17:25.516Z,30.90
2017-11-16T02:19:53.025Z,30.40
2017-11-16T02:22:20.486Z,29.83
2017-11-16T02:24:47.934Z,28.73
2017-11-16T02:27:15.425Z,29.10
2017-11-16T02:29:42.887Z,29.08
2017-11-16T02:32:10.493Z,29.60
2017-11-16T02:34:38.057Z,29.90
2017-11-16T02:37:05.538Z,29.00
2017-11-16T02:39:33.028Z,30.60
2017-11-16T02:42:00.505Z,31.52
2017-11-16T02:44:28.113Z,29.45
2017-11-16T02:46:55.603Z,30.30
2017-11-16T02:49:23.122Z,32.10
2017-11-16T02:51:50.606Z,29.67
2017-11-16T02:54:18.822Z,31.83
2017-11-16T02:56:46.399Z,31.23
2017-11-16T02:59:14.634Z,30.48
2017-11-16T03:01:42.119Z,30.77
2017-11-16T03:04:09.633Z,28.27
2017-11-16T03:06:37.099Z,30.73
2017-11-16T03:09:04.563Z,29.30
2017-11-16T03:11:32.044Z,26.70
2017-11-16T03:13:59.500Z,28.50
2017-11-16T03:16:26.977Z,27.77
2017-11-16T03:18:54.441Z,28.35
2017-11-16T03:21:22.730Z,29.42
2017-11-16T03:23:50.193Z,31.02
2017-11-16T03:26:17.742Z,29.60
2017-11-16T03:28:45.233Z,28.10
2017-11-16T03:31:12.702Z,28.85
2017-11-16T03:33:40.166Z,29.50
2017-11-16T03:36:08.489Z,29.20
2017-11-16T03:38:35.958Z,30.73
2017-11-16T03:41:04.205Z,30.17
2017-11-16T03:43:31.683Z,26.75
2017-11-16T03:45:59.171Z,29.55
2017-11-16T03:48:26.633Z,29.92
2017-11-16T03:50:54.171Z,29.25
2017-11-16T03:53:21.662Z,29.55
2017-11-16T03:55:49.906Z,28.17
2017-11-16T03:58:17.385Z,27.73
2017-11-16T04:00:44.844Z,26.23
2017-11-16T04:03:12.357Z,28.27
2017-11-16T04:05:39.849Z,30.10
2017-11-16T04:08:07.322Z,26.20
2017-11-16T04:10:34.819Z,28.23
2017-11-16T04:13:02.291Z,29.40
2017-11-16T04:15:29.761Z,25.35
2017-11-16T04:17:57.315Z,27.83
2017-11-16T04:20:24.784Z,27.45
2017-11-16T04:22:53.128Z,25.90
2017-11-16T04:25:20.606Z,26.73
2017-11-16T04:27:48.075Z,28.15
2017-11-16T04:30:15.586Z,27.98
2017-11-16T04:32:43.056Z,27.20
2017-11-16T04:35:10.524Z,25.73
2017-11-16T04:37:38.079Z,27.30
2017-11-16T04:40:06.350Z,28.40
2017-11-16T04:42:33.806Z,27.98
2017-11-16T04:45:01.281Z,28.80
2017-11-16T04:47:28.756Z,28.10
2017-11-16T04:49:56.247Z,28.23
2017-11-16T04:52:23.735Z,26.67
2017-11-16T04:54:51.205Z,29.42
2017-11-16T04:57:18.686Z,29.15
2017-11-16T04:59:46.175Z,28.42
2017-11-16T05:02:13.753Z,28.55
2017-11-16T05:04:41.285Z,29.50
2017-11-16T05:07:08.763Z,25.62
2017-11-16T05:09:36.305Z,23.62
2017-11-16T05:12:03.786Z,29.75
2017-11-16T05:14:31.251Z,26.75
2017-11-16T05:16:59.537Z,25.33
2017-11-16T05:19:27.014Z,27.40
2017-11-16T05:21:54.595Z,27.10
2017-11-16T05:24:22.088Z,29.08
2017-11-16T05:26:49.560Z,28.48
2017-11-16T05:29:17.131Z,28.80
2017-11-16T05:31:44.614Z,26.52
2017-11-16T05:34:12.182Z,24.58
2017-11-16T05:36:39.667Z,27.00
2017-11-16T05:39:07.146Z,28.12
2017-11-16T05:41:34.628Z,28.33
2017-11-16T05:44:02.107Z,26.50
2017-11-16T05:46:29.621Z,28.30
2017-11-16T05:48:57.095Z,26.80
2017-11-16T05:51:24.578Z,28.33
2017-11-16T05:53:52.373Z,28.87
2017-11-16T05:56:20.826Z,28.23
2017-11-16T05:58:48.345Z,29.73
2017-11-16T06:01:15.846Z,27.23
2017-11-16T06:03:43.366Z,29.52
2017-11-16T06:06:10.919Z,29.37
2017-11-16T06:08:38.405Z,30.08
2017-11-16T06:11:05.895Z,30.52
2017-11-16T06:13:33.368Z,28.45
2017-11-16T06:16:00.865Z,29.90
2017-11-16T06:18:29.130Z,31.83
2017-11-16T06:20:56.668Z,31.75
2017-11-16T06:23:24.978Z,28.40
2017-11-16T06:25:53.273Z,31.67
2017-11-16T06:28:20.769Z,30.73
2017-11-16T06:30:48.255Z,31.90
2017-11-16T06:33:15.808Z,27.80
2017-11-16T06:35:44.035Z,33.00
2017-11-16T06:38:11.503Z,28.87
2017-11-16T06:40:39.033Z,31.65
2017-11-16T06:43:06.618Z,30.05
2017-11-16T06:45:34.138Z,26.77
2017-11-16T06:48:01.837Z,26.62
2017-11-16T06:50:30.104Z,25.90
2017-11-16T06:52:57.578Z,26.52
2017-11-16T06:55:25.040Z,25.30
2017-11-16T06:57:52.551Z,25.37
2017-11-16T07:00:20.029Z,29.75
2017-11-16T07:02:47.753Z,28.83
2017-11-16T07:05:15.993Z,30.58
2017-11-16T07:07:43.529Z,26.25
2017-11-16T07:10:11.020Z,25.70
2017-11-16T07:12:39.278Z,25.17
2017-11-16T07:15:06.937Z,26.83
2017-11-16T07:17:34.450Z,25.48
2017-11-16T07:20:01.944Z,25.88
2017-11-16T07:22:29.426Z,25.92
2017-11-16T07:24:56.996Z,22.20
2017-11-16T07:27:24.712Z,24.60
2017-11-16T07:29:52.218Z,22.90
2017-11-16T07:32:20.500Z,22.80
2017-11-16T07:34:48.041Z,24.27
2017-11-16T07:37:15.604Z,24.10
2017-11-16T07:39:43.090Z,23.85
2017-11-16T07:42:10.705Z,23.23
2017-11-16T07:44:38.203Z,25.80
2017-11-16T07:47:05.770Z,24.30
2017-11-16T07:49:33.282Z,23.38
2017-11-16T07:52:00.772Z,24.60
2017-11-16T07:54:28.293Z,24.45
2017-11-16T07:56:55.765Z,27.05
2017-11-16T07:59:24.238Z,27.83
2017-11-16T08:01:51.799Z,24.98
2017-11-16T08:04:20.217Z,26.17
2017-11-16T08:06:47.832Z,24.48
2017-11-16T08:09:16.147Z,25.75
2017-11-16T08:11:43.634Z,27.08
2017-11-16T08:14:11.228Z,26.50
2017-11-16T08:16:38.697Z,26.47
2017-11-16T08:19:06.187Z,26.05
2017-11-16T08:21:33.761Z,28.02
2017-11-16T08:24:02.072Z,30.83
2017-11-16T08:26:29.560Z,27.25
2017-11-16T08:28:57.081Z,29.40
2017-11-16T08:31:24.757Z,30.77
2017-11-16T08:33:52.232Z,29.52
2017-11-16T08:36:19.727Z,30.23
2017-11-16T08:38:47.245Z,27.73
2017-11-16T08:41:15.505Z,28.42
2017-11-16T08:43:42.988Z,28.97
2017-11-16T08:46:10.502Z,30.20
2017-11-16T08:48:38.056Z,28.35
2017-11-16T08:51:05.541Z,28.93
2017-11-16T08:53:33.078Z,29.48
2017-11-16T08:56:01.325Z,28.65
2017-11-16T08:58:28.851Z,31.50
2017-11-16T09:00:56.348Z,31.63
2017-11-16T09:03:23.890Z,29.90
2017-11-16T09:05:51.397Z,27.00
2017-11-16T09:08:19.674Z,27.52
2017-11-16T09:10:47.170Z,28.17
2017-11-16T09:15:59.474Z,29.60
2017-11-16T09:18:26.955Z,29.77
2017-11-16T09:20:54.439Z,28.13
2017-11-16T09:23:21.973Z,29.63
2017-11-16T09:25:50.233Z,28.37
2017-11-16T09:28:17.745Z,26.97
2017-11-16T09:30:45.218Z,27.60
2017-11-16T09:33:12.741Z,27.30
2017-11-16T09:35:41.032Z,26.40
2017-11-16T09:38:08.623Z,29.10
2017-11-16T09:40:36.899Z,29.30
2017-11-16T09:43:04.376Z,27.47
2017-11-16T09:45:31.880Z,27.83
2017-11-16T09:48:00.126Z,29.33
2017-11-16T09:50:27.660Z,26.43
2017-11-16T09:52:55.147Z,32.30
2017-11-16T09:55:22.654Z,28.00
2017-11-16T09:57:50.211Z,28.67
2017-11-16T10:00:17.848Z,31.23
2017-11-16T10:02:45.433Z,26.47
2017-11-16T10:05:12.892Z,27.80
2017-11-16T10:07:40.394Z,28.03
2017-11-16T10:10:07.893Z,27.48
2017-11-16T10:12:36.161Z,28.57
2017-11-16T10:15:03.756Z,26.87
2017-11-16T10:17:31.250Z,25.93
2017-11-16T10:19:59.502Z,28.93
2017-11-16T10:22:26.964Z,25.23
2017-11-16T10:25:01.016Z,26.87
2017-11-16T10:27:29.282Z,27.20
2017-11-16T10:29:56.859Z,26.20
2017-11-16T10:32:24.479Z,28.93
2017-11-16T10:34:51.995Z,26.60
2017-11-16T10:39:57.813Z,25.97
2017-11-16T10:42:25.292Z,29.20
2017-11-16T10:44:52.758Z,30.00
2017-11-16T10:47:20.319Z,28.73
2017-11-16T10:49:47.803Z,27.47
2017-11-16T10:52:15.303Z,28.25
2017-11-16T10:54:42.759Z,26.90
2017-11-16T10:57:10.261Z,30.83
2017-11-16T10:59:37.797Z,27.83
2017-11-16T11:02:06.041Z,26.97
2017-11-16T11:04:33.605Z,27.67
2017-11-16T11:07:01.850Z,26.77
2017-11-16T11:09:29.399Z,27.13
2017-11-16T11:11:56.851Z,24.87
2017-11-16T11:14:24.447Z,24.73
2017-11-16T11:16:51.936Z,25.50
2017-11-16T11:19:19.414Z,29.33
2017-11-16T11:21:46.914Z,26.20
2017-11-16T11:24:15.326Z,26.07
2017-11-16T11:26:43.911Z,25.63
2017-11-16T11:29:11.554Z,25.73
2017-11-16T11:31:39.827Z,25.70
2017-11-16T11:34:08.065Z,25.65
2017-11-16T11:36:35.560Z,26.73
2017-11-16T11:39:03.062Z,24.30
2017-11-16T11:41:30.654Z,26.80
2017-11-16T11:43:58.151Z,26.52
2017-11-16T11:46:26.389Z,23.80
2017-11-16T11:48:54.694Z,25.40
2017-11-16T11:51:22.181Z,23.97
2017-11-16T11:53:49.688Z,22.80
2017-11-16T11:56:17.145Z,22.63
2017-11-16T11:58:44.662Z,23.07
2017-11-16T12:01:12.922Z,20.23
2017-11-16T12:03:40.388Z,21.80
2017-11-16T12:06:13.952Z,22.30
2017-11-16T12:08:41.522Z,21.93
2017-11-16T12:11:08.989Z,21.70
2017-11-16T12:13:36.498Z,20.20
2017-11-16T12:16:04.037Z,20.37
2017-11-16T12:18:31.494Z,21.83
2017-11-16T12:20:58.996Z,21.47
2017-11-16T12:23:27.360Z,21.80
2017-11-16T12:25:54.866Z,21.87
2017-11-16T12:28:23.114Z,20.83
2017-11-16T12:30:50.719Z,18.73
2017-11-16T12:33:18.272Z,20.93
2017-11-16T12:35:45.773Z,19.67
2017-11-16T12:38:13.290Z,21.43
2017-11-16T12:43:19.078Z,21.50
2017-11-16T12:45:46.546Z,23.27
2017-11-16T12:48:14.790Z,23.57
2017-11-16T12:50:42.278Z,23.70
2017-11-16T12:53:09.781Z,25.70
2017-11-16T12:55:37.271Z,25.93
2017-11-16T12:58:04.811Z,26.50
2017-11-16T13:00:32.319Z,24.87
2017-11-16T13:03:01.473Z,24.43
2017-11-16T13:05:28.936Z,26.07
2017-11-16T13:07:56.393Z,24.93
2017-11-16T13:10:23.875Z,25.40
2017-11-16T13:12:51.334Z,26.65
2017-11-16T13:15:18.814Z,25.97
2017-11-16T13:17:47.130Z,23.57
2017-11-16T13:20:15.407Z,22.47
2017-11-16T13:22:49.689Z,21.47
2017-11-16T13:27:55.382Z,22.33
2017-11-16T13:30:23.630Z,22.90
2017-11-16T13:32:51.127Z,21.00
2017-11-16T13:35:19.416Z,23.63
2017-11-16T13:37:46.926Z,22.33
2017-11-16T13:40:21.341Z,25.77
2017-11-16T13:42:48.946Z,24.40
2017-11-16T13:45:17.197Z,23.70
2017-11-16T13:47:44.723Z,23.53
2017-11-16T13:50:12.187Z,22.10
2017-11-16T13:52:39.692Z,23.67
2017-11-16T13:55:07.922Z,23.07
2017-11-16T13:57:35.401Z,47.53
2017-11-16T14:00:02.874Z,23.53
2017-11-16T14:02:30.350Z,23.93
2017-11-16T14:04:58.567Z,24.70
2017-11-16T14:07:26.037Z,21.80
2017-11-16T14:09:53.506Z,22.23
2017-11-16T14:12:20.978Z,24.47
2017-11-16T14:14:48.440Z,23.97
2017-11-16T14:17:15.920Z,24.10
2017-11-16T14:19:43.373Z,27.10
2017-11-16T14:22:11.615Z,24.95
2017-11-16T14:24:39.137Z,27.50
2017-11-16T14:27:07.471Z,26.37
2017-11-16T14:29:35.696Z,27.20
2017-11-16T14:32:03.152Z,23.40
2017-11-16T14:34:31.515Z,27.20
2017-11-16T14:36:58.986Z,23.93
2017-11-16T14:39:26.499Z,23.43
2017-11-16T14:41:53.976Z,24.43
2017-11-16T14:44:21.443Z,25.52
2017-11-16T14:46:48.923Z,25.90
2017-11-16T14:49:16.514Z,26.33
2017-11-16T14:51:44.794Z,25.10
2017-11-16T14:54:13.019Z,24.30
2017-11-16T14:56:40.526Z,25.13
2017-11-16T14:59:08.051Z,27.03
2017-11-16T15:01:35.564Z,25.03
2017-11-16T15:04:03.167Z,25.80
2017-11-16T15:06:30.814Z,25.27
2017-11-16T15:08:58.293Z,27.02
2017-11-16T15:11:25.771Z,26.03
2017-11-16T15:13:53.291Z,23.70
2017-11-16T15:16:20.796Z,21.30
2017-11-16T15:18:48.382Z,20.93
2017-11-16T15:21:15.866Z,22.50
2017-11-16T15:23:43.336Z,20.47
2017-11-16T15:26:10.818Z,22.87
2017-11-16T15:28:38.349Z,20.57
2017-11-16T15:31:05.840Z,22.07
2017-11-16T15:33:33.356Z,23.02
2017-11-16T15:36:01.773Z,24.50
2017-11-16T15:38:35.795Z,23.40
2017-11-16T15:41:03.296Z,23.63
2017-11-16T15:43:30.816Z,21.07
2017-11-16T15:45:58.309Z,23.87
2017-11-16T15:48:25.792Z,22.80
2017-11-16T15:50:53.268Z,25.10
2017-11-16T15:53:27.606Z,24.37
2017-11-16T15:55:55.846Z,23.53
2017-11-16T15:58:23.342Z,22.70
2017-11-16T16:00:50.825Z,26.40
2017-11-16T16:03:18.280Z,24.53
2017-11-16T16:05:45.942Z,26.20
2017-11-16T16:08:13.899Z,26.00
2017-11-16T16:10:42.317Z,26.83
2017-11-16T16:13:09.995Z,26.77
2017-11-16T16:15:37.440Z,23.80
2017-11-16T16:18:04.959Z,23.20
2017-11-16T16:20:32.620Z,22.97
2017-11-16T16:23:00.225Z,22.90
2017-11-16T16:25:27.726Z,26.27
2017-11-16T16:30:34.807Z,24.35
2017-11-16T16:33:02.423Z,26.50
2017-11-16T16:35:30.021Z,26.95
2017-11-16T16:37:58.340Z,25.50
2017-11-16T16:40:26.100Z,23.48
2017-11-16T16:42:53.650Z,25.23
2017-11-16T16:45:21.335Z,24.75
2017-11-16T16:47:48.964Z,25.90
2017-11-16T16:50:17.278Z,27.50
2017-11-16T16:52:45.580Z,34.33
2017-11-16T16:55:13.959Z,25.37
2017-11-16T16:57:41.535Z,27.50
2017-11-16T17:00:09.070Z,26.80
2017-11-16T17:02:37.362Z,26.83
2017-11-16T17:05:04.994Z,24.97
2017-11-16T17:07:32.549Z,24.00
2017-11-16T17:10:00.111Z,29.37
2017-11-16T17:12:27.801Z,24.93
2017-11-16T17:14:56.087Z,22.23
2017-11-16T17:20:02.207Z,24.47
2017-11-16T17:22:29.713Z,23.67
2017-11-16T17:24:57.270Z,22.00
2017-11-16T17:27:24.874Z,24.57
2017-11-16T17:29:52.681Z,24.27
2017-11-16T17:32:20.243Z,23.40
2017-11-16T17:34:47.827Z,24.17
2017-11-16T17:37:15.384Z,22.90
2017-11-16T17:39:42.922Z,22.23
2017-11-16T17:42:10.559Z,21.70
2017-11-16T17:44:38.117Z,21.27
2017-11-16T17:47:05.711Z,23.80
2017-11-16T17:49:33.254Z,22.50
2017-11-16T17:52:00.773Z,21.83
2017-11-16T17:54:28.402Z,21.17
2017-11-16T17:56:56.724Z,20.63
2017-11-16T17:59:25.073Z,21.07
2017-11-16T18:01:52.609Z,21.93
2017-11-16T18:04:20.144Z,21.80
2017-11-16T18:06:47.731Z,21.77
2017-11-16T18:09:16.129Z,21.77
2017-11-16T18:11:43.749Z,20.50
2017-11-16T18:14:11.301Z,22.20
2017-11-16T18:16:39.601Z,22.30
2017-11-16T18:19:07.166Z,21.43
2017-11-16T18:21:35.451Z,20.93
2017-11-16T18:24:03.892Z,20.63
2017-11-16T18:26:31.476Z,21.67
2017-11-16T18:28:59.062Z,21.90
2017-11-16T18:31:26.714Z,21.30
2017-11-16T18:33:54.239Z,20.10
2017-11-16T18:36:22.650Z,21.67
2017-11-16T18:38:50.210Z,20.77
2017-11-16T18:41:18.633Z,22.47
2017-11-16T18:43:46.175Z,23.07
2017-11-16T18:46:13.730Z,22.65
2017-11-16T18:48:41.254Z,22.90
2017-11-16T18:51:08.799Z,23.63
2017-11-16T18:53:36.364Z,20.87
2017-11-16T18:56:03.910Z,22.07
2017-11-16T18:58:31.510Z,23.90
2017-11-16T19:00:59.055Z,23.52
2017-11-16T19:03:26.611Z,23.50
2017-11-16T19:05:54.165Z,23.87
2017-11-16T19:08:21.817Z,22.10
2017-11-16T19:10:49.467Z,23.47
2017-11-16T19:13:17.004Z,24.60
2017-11-16T19:15:44.557Z,22.70
2017-11-16T19:18:12.108Z,24.13
2017-11-16T19:20:39.649Z,23.50
2017-11-16T19:23:07.198Z,24.90
2017-11-16T19:25:35.524Z,24.50
2017-11-16T19:28:03.097Z,24.40
2017-11-16T19:30:31.451Z,22.47
2017-11-16T19:32:59.020Z,24.70
2017-11-16T19:35:26.592Z,24.43
2017-11-16T19:37:54.147Z,23.90
2017-11-16T19:40:22.526Z,24.37
2017-11-16T19:42:50.071Z,22.30
2017-11-16T19:45:17.714Z,26.50
2017-11-16T19:47:45.256Z,24.27
2017-11-16T19:50:13.580Z,25.60
2017-11-16T19:52:41.194Z,25.73
2017-11-16T19:55:08.775Z,23.53
2017-11-16T19:57:36.298Z,26.97
2017-11-16T20:00:03.888Z,23.50
2017-11-16T20:02:31.420Z,25.30
2017-11-16T20:04:59.079Z,25.70
2017-11-16T20:07:27.386Z,24.70
2017-11-16T20:09:54.984Z,26.77
2017-11-16T20:12:22.509Z,23.90
2017-11-16T20:14:50.090Z,24.67
2017-11-16T20:17:17.635Z,23.73
2017-11-16T20:19:45.195Z,25.07
2017-11-16T20:22:13.554Z,25.43
2017-11-16T20:24:41.092Z,26.33
2017-11-16T20:27:08.637Z,23.10
2017-11-16T20:29:36.258Z,23.60
2017-11-16T20:32:03.990Z,25.60
2017-11-16T20:34:31.527Z,25.13
2017-11-16T20:37:12.996Z,27.40
2017-11-16T20:42:50.866Z,27.07
2017-11-16T20:48:32.275Z,22.10
2017-11-16T20:51:09.731Z,25.53
2017-11-16T20:56:22.053Z,23.50
2017-11-16T20:58:49.652Z,25.70
2017-11-16T21:01:17.187Z,25.07
2017-11-16T21:03:44.720Z,26.53
2017-11-16T21:06:12.283Z,24.50
2017-11-16T21:08:39.902Z,25.10
2017-11-16T21:11:07.574Z,25.27
2017-11-16T21:13:35.229Z,26.70
2017-11-16T21:16:02.909Z,27.50
2017-11-16T21:18:30.448Z,28.43
2017-11-16T21:20:58.934Z,25.42
2017-11-16T21:23:26.530Z,27.00
2017-11-16T21:25:55.267Z,26.55
2017-11-16T21:28:22.830Z,28.27
2017-11-16T21:30:50.356Z,26.00
2017-11-16T21:33:17.912Z,25.85
2017-11-16T21:35:46.236Z,25.70
2017-11-16T21:38:13.803Z,26.00
2017-11-16T21:40:41.432Z,23.05
2017-11-16T21:43:09.005Z,20.27
2017-11-16T21:45:36.598Z,23.10
2017-11-16T21:48:04.332Z,21.77
2017-11-16T21:50:31.880Z,22.45
2017-11-16T21:52:59.452Z,20.98
2017-11-16T21:55:27.822Z,20.90
2017-11-16T21:57:55.381Z,23.02
2017-11-16T22:00:22.959Z,20.98
2017-11-16T22:02:50.487Z,22.00
2017-11-16T22:05:18.054Z,22.52
2017-11-16T22:07:46.443Z,21.70
2017-11-16T22:10:13.958Z,21.55
2017-11-16T22:12:41.490Z,23.40
2017-11-16T22:15:09.111Z,22.15
2017-11-16T22:17:37.436Z,22.02
2017-11-16T22:20:05.017Z,22.27
2017-11-16T22:22:32.547Z,19.90
2017-11-16T22:25:00.111Z,20.45
2017-11-16T22:27:27.663Z,19.15
2017-11-16T22:29:55.240Z,21.60
2017-11-16T22:32:22.916Z,20.90
2017-11-16T22:34:51.202Z,22.15
2017-11-16T22:37:18.913Z,23.85
2017-11-16T22:39:46.426Z,23.87
2017-11-16T22:42:13.973Z,23.95
2017-11-16T22:44:42.305Z,24.45
2017-11-16T22:47:10.613Z,22.60
2017-11-16T22:49:38.147Z,22.73
2017-11-16T22:52:05.706Z,25.03
2017-11-16T22:54:33.256Z,24.07
2017-11-16T22:57:00.818Z,23.17
2017-11-16T22:59:28.410Z,23.27
2017-11-16T23:01:55.932Z,22.40
2017-11-16T23:04:23.711Z,20.90
2017-11-16T23:06:51.234Z,22.67
2017-11-16T23:09:18.760Z,21.97
2017-11-16T23:11:46.298Z,19.80
2017-11-16T23:14:13.828Z,21.77
2017-11-16T23:16:41.426Z,21.30
2017-11-16T23:19:08.992Z,22.92
2017-11-16T23:21:36.512Z,24.83
2017-11-16T23:24:04.038Z,23.60
2017-11-16T23:26:32.338Z,24.80
2017-11-16T23:29:00.694Z,23.38
2017-11-16T23:31:28.280Z,22.27
2017-11-16T23:33:55.791Z,22.55
2017-11-16T23:36:23.337Z,24.07
2017-11-16T23:38:50.860Z,23.37
2017-11-16T23:41:18.437Z,23.87
2017-11-16T23:43:46.112Z,22.70
2017-11-16T23:46:13.648Z,23.83
2017-11-16T23:48:41.954Z,25.83
2017-11-16T23:51:10.287Z,23.30
2017-11-16T23:53:38.557Z,27.53
2017-11-16T23:56:06.096Z,25.20
2017-11-16T23:58:33.697Z,27.67
